LGSA/CHQ METAR and TAF weather

Enter ICAO airport designator
Station Type Date Time Source
LGSA METAR 2019/12/06 08:50 UTC NOAA

LGSA 060850Z 07006KT 9999 FEW025 BKN040 15/10 Q1025


Station Type Date Time Source
LGSA Decoded METAR 2019/12/06 08:50 UTC NOAA

Souda Airport , Greece (LGSA) 35-29N 024-07E 151M
Dec 06, 2019 - 03:50 AM EST / 2019.12.06 0850 UTC
Wind: from the ENE (070 degrees) at 7 MPH (6 KT):0
Visibility: greater than 7 mile(s):0
Sky conditions: mostly cloudy
Temperature: 59 F (15 C)
Dew Point: 50 F (10 C)
Relative Humidity: 72%
Pressure (altimeter): 30.27 in. Hg (1025 hPa)
ob: LGSA 060850Z 07006KT 9999 FEW025 BKN040 15/10 Q1025
cycle: 9

Station Type Date Time Source
LGSA TAF 2019/12/06 06:12 UTC NOAA

TAF LGSA 060500Z 0606/0706 05010KT 9999 FEW020 BKN040

Example: see airport list